sensor_id;sensor_type;location;lat;lon;timestamp;temperature;humidity
32977;DHT22;47687;50.842;4.450;2022-11-09T00:01:28;14.70;99.90
32977;DHT22;47687;50.842;4.450;2022-11-09T00:03:55;14.60;99.90
32977;DHT22;47687;50.842;4.450;2022-11-09T00:06:22;14.60;99.90
32977;DHT22;47687;50.842;4.450;2022-11-09T00:08:47;14.60;99.90
32977;DHT22;47687;50.842;4.450;2022-11-09T00:11:13;14.60;99.90
32977;DHT22;47687;50.842;4.450;2022-11-09T00:13:40;14.50;99.90
32977;DHT22;47687;50.842;4.450;2022-11-09T00:16:08;14.50;99.90
32977;DHT22;47687;50.842;4.450;2022-11-09T00:18:35;14.50;99.90
32977;DHT22;47687;50.842;4.450;2022-11-09T00:21:09;14.50;99.90
32977;DHT22;47687;50.842;4.450;2022-11-09T00:23:35;14.40;99.90
32977;DHT22;47687;50.842;4.450;2022-11-09T00:26:03;14.30;99.90
32977;DHT22;47687;50.842;4.450;2022-11-09T00:28:29;14.30;99.90
32977;DHT22;47687;50.842;4.450;2022-11-09T00:30:59;14.30;99.90
32977;DHT22;47687;50.842;4.450;2022-11-09T00:33:24;14.30;99.90
32977;DHT22;47687;50.842;4.450;2022-11-09T00:35:50;14.40;99.90
32977;DHT22;47687;50.842;4.450;2022-11-09T00:38:15;14.40;99.90
32977;DHT22;47687;50.842;4.450;2022-11-09T00:40:41;14.30;99.90
32977;DHT22;47687;50.842;4.450;2022-11-09T00:43:06;14.20;99.90
32977;DHT22;47687;50.842;4.450;2022-11-09T00:45:32;14.10;99.90
32977;DHT22;47687;50.842;4.450;2022-11-09T00:47:57;14.10;99.90
32977;DHT22;47687;50.842;4.450;2022-11-09T00:50:23;13.90;99.90
32977;DHT22;47687;50.842;4.450;2022-11-09T00:52:49;13.90;99.90
32977;DHT22;47687;50.842;4.450;2022-11-09T00:55:15;13.90;99.90
32977;DHT22;47687;50.842;4.450;2022-11-09T00:57:40;13.70;99.90
32977;DHT22;47687;50.842;4.450;2022-11-09T01:00:06;13.60;99.90
32977;DHT22;47687;50.842;4.450;2022-11-09T01:02:32;13.60;99.90
32977;DHT22;47687;50.842;4.450;2022-11-09T01:04:57;13.50;99.90
32977;DHT22;47687;50.842;4.450;2022-11-09T01:07:24;13.50;99.90
32977;DHT22;47687;50.842;4.450;2022-11-09T01:09:50;13.50;99.90
32977;DHT22;47687;50.842;4.450;2022-11-09T01:12:15;13.50;99.90
32977;DHT22;47687;50.842;4.450;2022-11-09T01:14:41;13.50;99.90
32977;DHT22;47687;50.842;4.450;2022-11-09T01:17:06;13.50;99.90
32977;DHT22;47687;50.842;4.450;2022-11-09T01:19:32;13.50;99.90
32977;DHT22;47687;50.842;4.450;2022-11-09T01:21:57;13.50;99.90
32977;DHT22;47687;50.842;4.450;2022-11-09T01:24:23;13.50;99.90
32977;DHT22;47687;50.842;4.450;2022-11-09T01:26:49;13.50;99.90
32977;DHT22;47687;50.842;4.450;2022-11-09T01:29:14;13.50;99.90
32977;DHT22;47687;50.842;4.450;2022-11-09T01:31:40;13.50;99.90
32977;DHT22;47687;50.842;4.450;2022-11-09T01:34:05;13.50;99.90
32977;DHT22;47687;50.842;4.450;2022-11-09T01:36:31;13.60;99.90
32977;DHT22;47687;50.842;4.450;2022-11-09T01:38:56;13.60;99.90
32977;DHT22;47687;50.842;4.450;2022-11-09T01:41:25;13.60;99.90
32977;DHT22;47687;50.842;4.450;2022-11-09T01:46:54;13.70;99.90
32977;DHT22;47687;50.842;4.450;2022-11-09T01:52:02;13.80;99.90
32977;DHT22;47687;50.842;4.450;2022-11-09T01:54:32;13.90;99.90
32977;DHT22;47687;50.842;4.450;2022-11-09T01:57:02;14.00;99.90
32977;DHT22;47687;50.842;4.450;2022-11-09T01:59:32;14.00;99.90
32977;DHT22;47687;50.842;4.450;2022-11-09T02:02:01;14.00;99.90
32977;DHT22;47687;50.842;4.450;2022-11-09T02:04:34;14.00;99.90
32977;DHT22;47687;50.842;4.450;2022-11-09T02:07:01;14.10;99.90
32977;DHT22;47687;50.842;4.450;2022-11-09T02:09:58;14.10;99.90
32977;DHT22;47687;50.842;4.450;2022-11-09T02:12:27;14.10;99.90
32977;DHT22;47687;50.842;4.450;2022-11-09T02:14:55;14.10;99.90
32977;DHT22;47687;50.842;4.450;2022-11-09T02:17:22;14.10;99.90
32977;DHT22;47687;50.842;4.450;2022-11-09T02:19:47;14.00;99.90
32977;DHT22;47687;50.842;4.450;2022-11-09T02:22:13;14.00;99.90
32977;DHT22;47687;50.842;4.450;2022-11-09T02:24:39;14.00;99.90
32977;DHT22;47687;50.842;4.450;2022-11-09T02:27:05;14.00;99.90
32977;DHT22;47687;50.842;4.450;2022-11-09T02:29:34;13.90;99.90
32977;DHT22;47687;50.842;4.450;2022-11-09T02:32:11;13.80;99.90
32977;DHT22;47687;50.842;4.450;2022-11-09T02:34:37;13.80;99.90
32977;DHT22;47687;50.842;4.450;2022-11-09T02:37:03;13.90;99.90
32977;DHT22;47687;50.842;4.450;2022-11-09T02:39:29;13.90;99.90
32977;DHT22;47687;50.842;4.450;2022-11-09T02:41:59;13.90;99.90
32977;DHT22;47687;50.842;4.450;2022-11-09T02:44:27;13.90;99.90
32977;DHT22;47687;50.842;4.450;2022-11-09T02:46:53;13.90;99.90
32977;DHT22;47687;50.842;4.450;2022-11-09T02:49:19;13.80;99.90
32977;DHT22;47687;50.842;4.450;2022-11-09T02:51:44;13.80;99.90
32977;DHT22;47687;50.842;4.450;2022-11-09T02:54:10;13.80;99.90
32977;DHT22;47687;50.842;4.450;2022-11-09T02:56:36;13.70;99.90
32977;DHT22;47687;50.842;4.450;2022-11-09T02:59:01;13.70;99.90
32977;DHT22;47687;50.842;4.450;2022-11-09T03:01:28;13.70;99.90
32977;DHT22;47687;50.842;4.450;2022-11-09T03:03:53;13.60;99.90
32977;DHT22;47687;50.842;4.450;2022-11-09T03:06:19;13.50;99.90
32977;DHT22;47687;50.842;4.450;2022-11-09T03:08:44;13.40;99.90
32977;DHT22;47687;50.842;4.450;2022-11-09T03:11:10;13.30;99.90
32977;DHT22;47687;50.842;4.450;2022-11-09T03:13:35;13.30;99.90
32977;DHT22;47687;50.842;4.450;2022-11-09T03:16:05;13.20;99.90
32977;DHT22;47687;50.842;4.450;2022-11-09T03:18:31;13.20;99.90
32977;DHT22;47687;50.842;4.450;2022-11-09T03:21:01;13.20;99.90
32977;DHT22;47687;50.842;4.450;2022-11-09T03:23:27;13.20;99.90
32977;DHT22;47687;50.842;4.450;2022-11-09T03:25:53;13.10;99.90
32977;DHT22;47687;50.842;4.450;2022-11-09T03:28:19;13.00;99.90
32977;DHT22;47687;50.842;4.450;2022-11-09T03:30:44;12.90;99.90
32977;DHT22;47687;50.842;4.450;2022-11-09T03:33:10;13.00;99.90
32977;DHT22;47687;50.842;4.450;2022-11-09T03:35:36;13.00;99.90
32977;DHT22;47687;50.842;4.450;2022-11-09T03:38:03;13.10;99.90
32977;DHT22;47687;50.842;4.450;2022-11-09T03:40:29;13.20;99.90
32977;DHT22;47687;50.842;4.450;2022-11-09T03:42:55;13.20;99.90
32977;DHT22;47687;50.842;4.450;2022-11-09T03:45:21;13.30;99.90
32977;DHT22;47687;50.842;4.450;2022-11-09T03:47:47;13.30;99.90
32977;DHT22;47687;50.842;4.450;2022-11-09T03:50:14;13.40;99.90
32977;DHT22;47687;50.842;4.450;2022-11-09T03:52:43;13.40;99.90
32977;DHT22;47687;50.842;4.450;2022-11-09T03:55:09;13.40;99.90
32977;DHT22;47687;50.842;4.450;2022-11-09T03:57:35;13.20;99.90
32977;DHT22;47687;50.842;4.450;2022-11-09T04:00:00;13.10;99.90
32977;DHT22;47687;50.842;4.450;2022-11-09T04:02:26;12.90;99.90
32977;DHT22;47687;50.842;4.450;2022-11-09T04:04:52;12.90;99.90
32977;DHT22;47687;50.842;4.450;2022-11-09T04:07:17;12.80;99.90
32977;DHT22;47687;50.842;4.450;2022-11-09T04:09:43;12.70;99.90
32977;DHT22;47687;50.842;4.450;2022-11-09T04:12:08;12.70;99.90
32977;DHT22;47687;50.842;4.450;2022-11-09T04:14:34;12.60;99.90
32977;DHT22;47687;50.842;4.450;2022-11-09T04:16:59;12.60;99.90
32977;DHT22;47687;50.842;4.450;2022-11-09T04:19:25;12.60;99.90
32977;DHT22;47687;50.842;4.450;2022-11-09T04:21:51;12.50;99.90
32977;DHT22;47687;50.842;4.450;2022-11-09T04:24:16;12.50;99.90
32977;DHT22;47687;50.842;4.450;2022-11-09T04:26:42;12.50;99.90
32977;DHT22;47687;50.842;4.450;2022-11-09T04:29:09;12.40;99.90
32977;DHT22;47687;50.842;4.450;2022-11-09T04:31:34;12.40;99.90
32977;DHT22;47687;50.842;4.450;2022-11-09T04:34:00;12.40;99.90
32977;DHT22;47687;50.842;4.450;2022-11-09T04:36:26;12.40;99.90
32977;DHT22;47687;50.842;4.450;2022-11-09T04:38:51;12.40;99.90
32977;DHT22;47687;50.842;4.450;2022-11-09T04:41:17;12.40;99.90
32977;DHT22;47687;50.842;4.450;2022-11-09T04:43:42;12.30;99.90
32977;DHT22;47687;50.842;4.450;2022-11-09T04:46:08;12.30;99.90
32977;DHT22;47687;50.842;4.450;2022-11-09T04:48:34;12.20;99.90
32977;DHT22;47687;50.842;4.450;2022-11-09T04:51:04;12.30;99.90
32977;DHT22;47687;50.842;4.450;2022-11-09T04:53:30;12.20;99.90
32977;DHT22;47687;50.842;4.450;2022-11-09T04:55:56;12.20;99.90
32977;DHT22;47687;50.842;4.450;2022-11-09T04:58:22;12.10;99.90
32977;DHT22;47687;50.842;4.450;2022-11-09T05:00:52;12.20;99.90
32977;DHT22;47687;50.842;4.450;2022-11-09T05:03:17;12.20;99.90
32977;DHT22;47687;50.842;4.450;2022-11-09T05:05:43;12.40;99.90
32977;DHT22;47687;50.842;4.450;2022-11-09T05:08:09;12.20;99.90
32977;DHT22;47687;50.842;4.450;2022-11-09T05:10:35;12.20;99.90
32977;DHT22;47687;50.842;4.450;2022-11-09T05:13:03;12.20;99.90
32977;DHT22;47687;50.842;4.450;2022-11-09T05:15:29;12.10;99.90
32977;DHT22;47687;50.842;4.450;2022-11-09T05:17:55;12.10;99.90
32977;DHT22;47687;50.842;4.450;2022-11-09T05:20:21;12.00;99.90
32977;DHT22;47687;50.842;4.450;2022-11-09T05:22:47;12.20;99.90
32977;DHT22;47687;50.842;4.450;2022-11-09T05:25:31;12.00;99.90
32977;DHT22;47687;50.842;4.450;2022-11-09T05:27:56;12.00;99.90
32977;DHT22;47687;50.842;4.450;2022-11-09T05:30:22;12.00;99.90
32977;DHT22;47687;50.842;4.450;2022-11-09T05:32:48;12.00;99.90
32977;DHT22;47687;50.842;4.450;2022-11-09T05:35:14;12.10;99.90
32977;DHT22;47687;50.842;4.450;2022-11-09T05:37:39;12.00;99.90
32977;DHT22;47687;50.842;4.450;2022-11-09T05:40:07;11.90;99.90
32977;DHT22;47687;50.842;4.450;2022-11-09T05:42:33;11.80;99.90
32977;DHT22;47687;50.842;4.450;2022-11-09T05:44:59;11.80;99.90
32977;DHT22;47687;50.842;4.450;2022-11-09T05:47:25;11.90;99.90
32977;DHT22;47687;50.842;4.450;2022-11-09T05:49:51;11.80;99.90
32977;DHT22;47687;50.842;4.450;2022-11-09T05:52:16;11.80;99.90
32977;DHT22;47687;50.842;4.450;2022-11-09T05:54:42;11.90;99.90
32977;DHT22;47687;50.842;4.450;2022-11-09T05:57:07;11.90;99.90
32977;DHT22;47687;50.842;4.450;2022-11-09T05:59:33;11.80;99.90
32977;DHT22;47687;50.842;4.450;2022-11-09T06:01:58;11.80;99.90
32977;DHT22;47687;50.842;4.450;2022-11-09T06:04:24;11.80;99.90
32977;DHT22;47687;50.842;4.450;2022-11-09T06:06:49;11.70;99.90
32977;DHT22;47687;50.842;4.450;2022-11-09T06:09:15;11.70;99.90
32977;DHT22;47687;50.842;4.450;2022-11-09T06:11:40;11.70;99.90
32977;DHT22;47687;50.842;4.450;2022-11-09T06:14:06;11.70;99.90
32977;DHT22;47687;50.842;4.450;2022-11-09T06:16:32;11.70;99.90
32977;DHT22;47687;50.842;4.450;2022-11-09T06:18:57;11.70;99.90
32977;DHT22;47687;50.842;4.450;2022-11-09T06:21:23;11.70;99.90
32977;DHT22;47687;50.842;4.450;2022-11-09T06:23:48;11.60;99.90
32977;DHT22;47687;50.842;4.450;2022-11-09T06:26:14;11.60;99.90
32977;DHT22;47687;50.842;4.450;2022-11-09T06:28:40;11.50;99.90
32977;DHT22;47687;50.842;4.450;2022-11-09T06:31:11;11.60;99.90
32977;DHT22;47687;50.842;4.450;2022-11-09T06:33:37;11.70;99.90
32977;DHT22;47687;50.842;4.450;2022-11-09T06:36:03;11.70;99.90
32977;DHT22;47687;50.842;4.450;2022-11-09T06:38:28;11.60;99.90
32977;DHT22;47687;50.842;4.450;2022-11-09T06:40:56;11.70;99.90
32977;DHT22;47687;50.842;4.450;2022-11-09T06:43:22;11.70;99.90
32977;DHT22;47687;50.842;4.450;2022-11-09T06:45:49;11.60;99.90
32977;DHT22;47687;50.842;4.450;2022-11-09T06:48:14;11.70;99.90
32977;DHT22;47687;50.842;4.450;2022-11-09T06:50:40;11.90;99.90
32977;DHT22;47687;50.842;4.450;2022-11-09T06:53:08;11.70;99.90
32977;DHT22;47687;50.842;4.450;2022-11-09T06:55:35;11.70;99.90
32977;DHT22;47687;50.842;4.450;2022-11-09T06:58:05;11.80;99.90
32977;DHT22;47687;50.842;4.450;2022-11-09T07:00:32;11.80;99.90
32977;DHT22;47687;50.842;4.450;2022-11-09T07:02:57;11.80;99.90
32977;DHT22;47687;50.842;4.450;2022-11-09T07:05:23;11.70;99.90
32977;DHT22;47687;50.842;4.450;2022-11-09T07:07:48;11.80;99.90
32977;DHT22;47687;50.842;4.450;2022-11-09T07:10:14;11.70;99.90
32977;DHT22;47687;50.842;4.450;2022-11-09T07:12:40;11.70;99.90
32977;DHT22;47687;50.842;4.450;2022-11-09T07:15:06;11.80;99.90
32977;DHT22;47687;50.842;4.450;2022-11-09T07:17:32;11.80;99.90
32977;DHT22;47687;50.842;4.450;2022-11-09T07:19:58;11.90;99.90
32977;DHT22;47687;50.842;4.450;2022-11-09T07:22:26;11.80;99.90
32977;DHT22;47687;50.842;4.450;2022-11-09T07:24:52;11.80;99.90
32977;DHT22;47687;50.842;4.450;2022-11-09T07:27:17;11.70;99.90
32977;DHT22;47687;50.842;4.450;2022-11-09T07:29:43;11.80;99.90
32977;DHT22;47687;50.842;4.450;2022-11-09T07:32:08;11.80;99.90
32977;DHT22;47687;50.842;4.450;2022-11-09T07:34:34;11.80;99.90
32977;DHT22;47687;50.842;4.450;2022-11-09T07:37:00;11.80;99.90
32977;DHT22;47687;50.842;4.450;2022-11-09T07:39:25;11.90;99.90
32977;DHT22;47687;50.842;4.450;2022-11-09T07:41:51;11.80;99.90
32977;DHT22;47687;50.842;4.450;2022-11-09T07:44:16;11.80;99.90
32977;DHT22;47687;50.842;4.450;2022-11-09T07:46:48;11.90;99.90
32977;DHT22;47687;50.842;4.450;2022-11-09T07:49:15;12.00;99.90
32977;DHT22;47687;50.842;4.450;2022-11-09T07:51:41;12.00;99.90
32977;DHT22;47687;50.842;4.450;2022-11-09T07:54:07;12.00;99.90
32977;DHT22;47687;50.842;4.450;2022-11-09T07:56:33;12.00;99.90
32977;DHT22;47687;50.842;4.450;2022-11-09T07:58:59;12.00;99.90
32977;DHT22;47687;50.842;4.450;2022-11-09T08:01:24;12.10;99.90
32977;DHT22;47687;50.842;4.450;2022-11-09T08:03:52;12.10;99.90
32977;DHT22;47687;50.842;4.450;2022-11-09T08:06:17;12.10;99.90
32977;DHT22;47687;50.842;4.450;2022-11-09T08:08:43;12.20;99.90
32977;DHT22;47687;50.842;4.450;2022-11-09T08:11:09;12.30;99.90
32977;DHT22;47687;50.842;4.450;2022-11-09T08:13:35;12.40;99.90
32977;DHT22;47687;50.842;4.450;2022-11-09T08:16:01;12.50;99.90
32977;DHT22;47687;50.842;4.450;2022-11-09T08:18:27;12.50;99.90
32977;DHT22;47687;50.842;4.450;2022-11-09T08:20:53;12.50;99.90
32977;DHT22;47687;50.842;4.450;2022-11-09T08:23:19;12.60;99.90
32977;DHT22;47687;50.842;4.450;2022-11-09T08:25:46;12.60;99.90
32977;DHT22;47687;50.842;4.450;2022-11-09T08:28:12;12.60;99.90
32977;DHT22;47687;50.842;4.450;2022-11-09T08:30:37;12.60;99.90
32977;DHT22;47687;50.842;4.450;2022-11-09T08:33:03;12.80;99.90
32977;DHT22;47687;50.842;4.450;2022-11-09T08:35:29;12.60;99.90
32977;DHT22;47687;50.842;4.450;2022-11-09T08:37:55;12.70;99.90
32977;DHT22;47687;50.842;4.450;2022-11-09T08:40:25;12.90;99.90
32977;DHT22;47687;50.842;4.450;2022-11-09T08:42:51;12.80;99.90
32977;DHT22;47687;50.842;4.450;2022-11-09T08:45:17;12.90;99.90
32977;DHT22;47687;50.842;4.450;2022-11-09T08:47:44;12.90;99.90
32977;DHT22;47687;50.842;4.450;2022-11-09T08:50:11;13.00;99.90
32977;DHT22;47687;50.842;4.450;2022-11-09T08:52:37;13.00;99.90
32977;DHT22;47687;50.842;4.450;2022-11-09T08:55:03;13.20;99.90
32977;DHT22;47687;50.842;4.450;2022-11-09T08:57:30;13.20;99.90
32977;DHT22;47687;50.842;4.450;2022-11-09T08:59:55;13.20;99.90
32977;DHT22;47687;50.842;4.450;2022-11-09T09:02:21;13.20;99.90
32977;DHT22;47687;50.842;4.450;2022-11-09T09:04:47;13.10;99.90
32977;DHT22;47687;50.842;4.450;2022-11-09T09:07:12;13.00;99.90
32977;DHT22;47687;50.842;4.450;2022-11-09T09:09:38;13.10;99.90
32977;DHT22;47687;50.842;4.450;2022-11-09T09:12:08;13.10;99.90
32977;DHT22;47687;50.842;4.450;2022-11-09T09:14:34;13.20;99.90
32977;DHT22;47687;50.842;4.450;2022-11-09T09:17:00;13.10;99.90
32977;DHT22;47687;50.842;4.450;2022-11-09T09:19:26;13.20;99.90
32977;DHT22;47687;50.842;4.450;2022-11-09T09:21:51;13.20;99.90
32977;DHT22;47687;50.842;4.450;2022-11-09T09:24:17;13.40;99.90
32977;DHT22;47687;50.842;4.450;2022-11-09T09:26:46;13.50;99.90
32977;DHT22;47687;50.842;4.450;2022-11-09T09:29:12;13.50;99.90
32977;DHT22;47687;50.842;4.450;2022-11-09T09:31:39;13.60;99.90
32977;DHT22;47687;50.842;4.450;2022-11-09T09:34:04;13.60;99.90
32977;DHT22;47687;50.842;4.450;2022-11-09T09:36:30;13.60;99.90
32977;DHT22;47687;50.842;4.450;2022-11-09T09:38:55;13.80;99.90
32977;DHT22;47687;50.842;4.450;2022-11-09T09:46:40;13.90;99.90
32977;DHT22;47687;50.842;4.450;2022-11-09T09:49:23;13.90;99.90
32977;DHT22;47687;50.842;4.450;2022-11-09T09:52:22;14.00;99.90
32977;DHT22;47687;50.842;4.450;2022-11-09T09:54:54;14.00;99.90
32977;DHT22;47687;50.842;4.450;2022-11-09T09:57:21;14.20;99.90
32977;DHT22;47687;50.842;4.450;2022-11-09T09:59:50;14.40;99.90
32977;DHT22;47687;50.842;4.450;2022-11-09T10:02:20;14.40;99.90
32977;DHT22;47687;50.842;4.450;2022-11-09T10:04:47;14.40;99.90
32977;DHT22;47687;50.842;4.450;2022-11-09T10:07:19;14.50;99.90
32977;DHT22;47687;50.842;4.450;2022-11-09T10:18:22;15.50;99.90
32977;DHT22;47687;50.842;4.450;2022-11-09T10:24:10;15.80;99.90
32977;DHT22;47687;50.842;4.450;2022-11-09T10:26:46;15.60;99.90
32977;DHT22;47687;50.842;4.450;2022-11-09T10:29:21;15.40;99.90
32977;DHT22;47687;50.842;4.450;2022-11-09T10:31:52;15.40;99.90
32977;DHT22;47687;50.842;4.450;2022-11-09T10:34:32;15.40;99.90
32977;DHT22;47687;50.842;4.450;2022-11-09T10:37:13;15.40;99.90
32977;DHT22;47687;50.842;4.450;2022-11-09T10:39:51;15.30;99.90
32977;DHT22;47687;50.842;4.450;2022-11-09T10:42:18;15.40;99.90
32977;DHT22;47687;50.842;4.450;2022-11-09T10:44:44;15.70;99.90
32977;DHT22;47687;50.842;4.450;2022-11-09T10:47:12;15.90;99.90
32977;DHT22;47687;50.842;4.450;2022-11-09T10:49:39;16.00;99.90
32977;DHT22;47687;50.842;4.450;2022-11-09T10:52:33;16.10;99.90
32977;DHT22;47687;50.842;4.450;2022-11-09T11:03:24;15.90;99.90
32977;DHT22;47687;50.842;4.450;2022-11-09T11:06:42;15.70;99.90
32977;DHT22;47687;50.842;4.450;2022-11-09T11:13:40;15.80;99.90
32977;DHT22;47687;50.842;4.450;2022-11-09T11:18:47;15.80;99.90
32977;DHT22;47687;50.842;4.450;2022-11-09T11:21:16;15.90;99.90
32977;DHT22;47687;50.842;4.450;2022-11-09T11:23:42;16.00;99.90
32977;DHT22;47687;50.842;4.450;2022-11-09T11:26:32;16.00;99.90
32977;DHT22;47687;50.842;4.450;2022-11-09T11:29:03;16.20;99.90
32977;DHT22;47687;50.842;4.450;2022-11-09T11:31:31;16.20;99.90
32977;DHT22;47687;50.842;4.450;2022-11-09T11:33:57;16.10;99.90
32977;DHT22;47687;50.842;4.450;2022-11-09T11:36:32;16.00;99.90
32977;DHT22;47687;50.842;4.450;2022-11-09T11:42:26;15.40;99.90
32977;DHT22;47687;50.842;4.450;2022-11-09T11:58:17;15.70;99.90
32977;DHT22;47687;50.842;4.450;2022-11-09T12:01:28;15.90;99.90
32977;DHT22;47687;50.842;4.450;2022-11-09T12:07:10;16.10;99.90
32977;DHT22;47687;50.842;4.450;2022-11-09T12:12:30;16.20;99.90
32977;DHT22;47687;50.842;4.450;2022-11-09T12:15:30;16.30;99.90
32977;DHT22;47687;50.842;4.450;2022-11-09T12:18:03;16.00;99.90
32977;DHT22;47687;50.842;4.450;2022-11-09T12:20:38;15.70;99.90
32977;DHT22;47687;50.842;4.450;2022-11-09T12:23:11;15.20;99.90
32977;DHT22;47687;50.842;4.450;2022-11-09T12:28:58;14.40;99.90
32977;DHT22;47687;50.842;4.450;2022-11-09T12:31:41;13.30;99.90
32977;DHT22;47687;50.842;4.450;2022-11-09T12:34:22;12.50;99.90
32977;DHT22;47687;50.842;4.450;2022-11-09T12:39:31;12.40;99.90
32977;DHT22;47687;50.842;4.450;2022-11-09T12:42:04;12.40;99.90
32977;DHT22;47687;50.842;4.450;2022-11-09T12:44:45;12.70;99.90
32977;DHT22;47687;50.842;4.450;2022-11-09T12:47:16;12.60;99.90
32977;DHT22;47687;50.842;4.450;2022-11-09T12:49:45;12.70;99.90
32977;DHT22;47687;50.842;4.450;2022-11-09T12:52:15;12.50;99.90
32977;DHT22;47687;50.842;4.450;2022-11-09T12:54:46;12.50;99.90
32977;DHT22;47687;50.842;4.450;2022-11-09T12:57:21;12.50;99.90
32977;DHT22;47687;50.842;4.450;2022-11-09T12:59:54;12.50;99.90
32977;DHT22;47687;50.842;4.450;2022-11-09T13:02:26;12.50;99.90
32977;DHT22;47687;50.842;4.450;2022-11-09T13:04:57;12.50;99.90
32977;DHT22;47687;50.842;4.450;2022-11-09T13:07:41;12.60;99.90
32977;DHT22;47687;50.842;4.450;2022-11-09T13:10:24;12.70;99.90
32977;DHT22;47687;50.842;4.450;2022-11-09T13:15:33;13.00;99.90
32977;DHT22;47687;50.842;4.450;2022-11-09T13:20:46;13.10;99.90
32977;DHT22;47687;50.842;4.450;2022-11-09T13:23:27;13.20;99.90
32977;DHT22;47687;50.842;4.450;2022-11-09T13:25:54;13.20;99.90
32977;DHT22;47687;50.842;4.450;2022-11-09T13:30:55;13.40;99.90
32977;DHT22;47687;50.842;4.450;2022-11-09T13:33:29;13.60;99.90
32977;DHT22;47687;50.842;4.450;2022-11-09T13:35:57;13.70;99.90
32977;DHT22;47687;50.842;4.450;2022-11-09T13:38:31;13.80;99.90
32977;DHT22;47687;50.842;4.450;2022-11-09T13:40:57;13.70;99.90
32977;DHT22;47687;50.842;4.450;2022-11-09T13:43:36;13.80;99.90
32977;DHT22;47687;50.842;4.450;2022-11-09T13:46:25;13.80;99.90
32977;DHT22;47687;50.842;4.450;2022-11-09T13:48:53;13.70;99.90
32977;DHT22;47687;50.842;4.450;2022-11-09T13:54:27;13.70;99.90
32977;DHT22;47687;50.842;4.450;2022-11-09T13:56:53;13.70;99.90
32977;DHT22;47687;50.842;4.450;2022-11-09T13:59:35;13.70;99.90
32977;DHT22;47687;50.842;4.450;2022-11-09T14:02:17;13.70;99.90
32977;DHT22;47687;50.842;4.450;2022-11-09T14:04:43;13.70;99.90
32977;DHT22;47687;50.842;4.450;2022-11-09T14:07:26;13.70;99.90
32977;DHT22;47687;50.842;4.450;2022-11-09T14:15:43;13.70;99.90
32977;DHT22;47687;50.842;4.450;2022-11-09T14:21:25;13.80;99.90
32977;DHT22;47687;50.842;4.450;2022-11-09T14:23:52;13.60;99.90
32977;DHT22;47687;50.842;4.450;2022-11-09T14:26:21;13.70;99.90
32977;DHT22;47687;50.842;4.450;2022-11-09T14:28:47;13.70;99.90
32977;DHT22;47687;50.842;4.450;2022-11-09T14:34:04;13.70;99.90
32977;DHT22;47687;50.842;4.450;2022-11-09T14:36:32;13.50;99.90
32977;DHT22;47687;50.842;4.450;2022-11-09T14:39:12;13.50;99.90
32977;DHT22;47687;50.842;4.450;2022-11-09T14:41:43;13.70;99.90
32977;DHT22;47687;50.842;4.450;2022-11-09T14:44:15;13.80;99.90
32977;DHT22;47687;50.842;4.450;2022-11-09T14:46:43;13.80;99.90
32977;DHT22;47687;50.842;4.450;2022-11-09T14:49:09;13.70;99.90
32977;DHT22;47687;50.842;4.450;2022-11-09T14:51:38;13.60;99.90
32977;DHT22;47687;50.842;4.450;2022-11-09T14:54:12;13.50;99.90
32977;DHT22;47687;50.842;4.450;2022-11-09T14:56:38;13.40;99.90
32977;DHT22;47687;50.842;4.450;2022-11-09T14:59:07;13.50;99.90
32977;DHT22;47687;50.842;4.450;2022-11-09T15:01:33;13.50;99.90
32977;DHT22;47687;50.842;4.450;2022-11-09T15:04:14;13.50;99.90
32977;DHT22;47687;50.842;4.450;2022-11-09T15:06:49;13.50;99.90
32977;DHT22;47687;50.842;4.450;2022-11-09T15:09:19;13.60;99.90
32977;DHT22;47687;50.842;4.450;2022-11-09T15:11:45;13.50;99.90
32977;DHT22;47687;50.842;4.450;2022-11-09T15:16:43;13.40;99.90
32977;DHT22;47687;50.842;4.450;2022-11-09T15:19:36;13.30;99.90
32977;DHT22;47687;50.842;4.450;2022-11-09T15:22:02;13.30;99.90
32977;DHT22;47687;50.842;4.450;2022-11-09T15:24:28;13.40;99.90
32977;DHT22;47687;50.842;4.450;2022-11-09T15:27:28;13.50;99.90
32977;DHT22;47687;50.842;4.450;2022-11-09T15:29:54;13.50;99.90
32977;DHT22;47687;50.842;4.450;2022-11-09T15:32:20;13.60;99.90
32977;DHT22;47687;50.842;4.450;2022-11-09T15:34:54;13.50;99.90
32977;DHT22;47687;50.842;4.450;2022-11-09T15:39:53;13.30;99.90
32977;DHT22;47687;50.842;4.450;2022-11-09T15:42:18;13.20;99.90
32977;DHT22;47687;50.842;4.450;2022-11-09T15:44:44;13.20;99.90
32977;DHT22;47687;50.842;4.450;2022-11-09T15:47:36;12.90;99.90
32977;DHT22;47687;50.842;4.450;2022-11-09T15:50:21;12.90;99.90
32977;DHT22;47687;50.842;4.450;2022-11-09T15:52:46;12.70;99.90
32977;DHT22;47687;50.842;4.450;2022-11-09T15:55:13;12.70;99.90
32977;DHT22;47687;50.842;4.450;2022-11-09T15:57:39;12.50;99.90
32977;DHT22;47687;50.842;4.450;2022-11-09T16:00:08;12.50;99.90
32977;DHT22;47687;50.842;4.450;2022-11-09T16:02:34;12.30;99.90
32977;DHT22;47687;50.842;4.450;2022-11-09T16:05:00;12.20;99.90
32977;DHT22;47687;50.842;4.450;2022-11-09T16:07:25;12.10;99.90
32977;DHT22;47687;50.842;4.450;2022-11-09T16:09:51;12.10;99.90
32977;DHT22;47687;50.842;4.450;2022-11-09T16:12:16;12.00;99.90
32977;DHT22;47687;50.842;4.450;2022-11-09T16:14:42;11.90;99.90
32977;DHT22;47687;50.842;4.450;2022-11-09T16:17:07;11.90;99.90
32977;DHT22;47687;50.842;4.450;2022-11-09T16:19:33;11.80;99.90
32977;DHT22;47687;50.842;4.450;2022-11-09T16:21:59;11.80;99.90
32977;DHT22;47687;50.842;4.450;2022-11-09T16:24:27;11.90;99.90
32977;DHT22;47687;50.842;4.450;2022-11-09T16:26:53;11.80;99.90
32977;DHT22;47687;50.842;4.450;2022-11-09T16:29:20;11.70;99.90
32977;DHT22;47687;50.842;4.450;2022-11-09T16:34:17;11.60;99.90
32977;DHT22;47687;50.842;4.450;2022-11-09T16:36:43;11.50;99.90
32977;DHT22;47687;50.842;4.450;2022-11-09T16:39:09;11.60;99.90
32977;DHT22;47687;50.842;4.450;2022-11-09T16:41:42;11.50;99.90
32977;DHT22;47687;50.842;4.450;2022-11-09T16:44:09;11.60;99.90
32977;DHT22;47687;50.842;4.450;2022-11-09T16:46:35;11.50;99.90
32977;DHT22;47687;50.842;4.450;2022-11-09T16:49:00;11.50;99.90
32977;DHT22;47687;50.842;4.450;2022-11-09T16:51:27;11.50;99.90
32977;DHT22;47687;50.842;4.450;2022-11-09T16:53:52;11.50;99.90
32977;DHT22;47687;50.842;4.450;2022-11-09T16:56:18;11.40;99.90
32977;DHT22;47687;50.842;4.450;2022-11-09T16:58:43;11.40;99.90
32977;DHT22;47687;50.842;4.450;2022-11-09T17:01:10;11.40;99.90
32977;DHT22;47687;50.842;4.450;2022-11-09T17:03:35;11.40;99.90
32977;DHT22;47687;50.842;4.450;2022-11-09T17:06:01;11.40;99.90
32977;DHT22;47687;50.842;4.450;2022-11-09T17:08:27;11.40;99.90
32977;DHT22;47687;50.842;4.450;2022-11-09T17:10:53;11.40;99.90
32977;DHT22;47687;50.842;4.450;2022-11-09T17:13:18;11.40;99.90
32977;DHT22;47687;50.842;4.450;2022-11-09T17:15:49;11.40;99.90